createdAt,value
2022-10-16T00:03:05.857Z,99194.43
2022-10-16T00:08:11.837Z,99194.86
2022-10-16T00:13:14.851Z,99192.86
2022-10-16T00:18:18.410Z,99195.32
2022-10-16T00:23:23.608Z,99203.58
2022-10-16T00:28:27.553Z,99209.38
2022-10-16T00:33:31.739Z,99213.81
2022-10-16T00:38:35.665Z,99218.29
2022-10-16T00:43:45.299Z,99217.64
2022-10-16T00:49:04.811Z,99221.02
2022-10-16T00:54:15.251Z,99230.61
2022-10-16T00:59:28.284Z,99226.63
2022-10-16T01:04:39.467Z,99228.54
2022-10-16T01:10:07.214Z,99228.10
2022-10-16T01:15:19.699Z,99235.73
2022-10-16T01:20:49.215Z,99236.38
2022-10-16T01:26:04.626Z,99236.80
2022-10-16T01:31:11.591Z,99229.93
2022-10-16T01:36:20.914Z,99232.80
2022-10-16T01:41:34.560Z,99239.25
2022-10-16T01:46:42.623Z,99238.14
2022-10-16T01:51:51.228Z,99245.36
2022-10-16T01:56:58.222Z,99248.98
2022-10-16T02:02:07.201Z,99253.20
2022-10-16T02:07:13.883Z,99259.49
2022-10-16T02:12:22.543Z,99253.63
2022-10-16T02:17:28.473Z,99253.97
2022-10-16T02:22:40.925Z,99251.60
2022-10-16T02:28:06.439Z,99253.30
2022-10-16T02:33:15.134Z,99254.77
2022-10-16T02:38:19.775Z,99259.60
2022-10-16T02:43:26.223Z,99258.11
2022-10-16T02:48:29.375Z,99257.55
2022-10-16T02:53:32.712Z,99260.65
2022-10-16T02:58:36.204Z,99258.20
2022-10-16T03:03:40.192Z,99256.94
2022-10-16T03:08:43.636Z,99262.59
2022-10-16T03:13:46.875Z,99266.59
2022-10-16T03:18:51.266Z,99264.05
2022-10-16T03:23:54.116Z,99262.19
2022-10-16T03:28:57.389Z,99260.95
2022-10-16T03:34:00.904Z,99266.77
2022-10-16T03:39:04.170Z,99274.52
2022-10-16T03:44:09.005Z,99285.44
2022-10-16T03:49:13.802Z,99293.92
2022-10-16T03:54:16.887Z,99295.69
2022-10-16T03:59:23.246Z,99301.73
2022-10-16T04:04:26.417Z,99309.13
2022-10-16T04:09:30.385Z,99311.23
2022-10-16T04:14:33.229Z,99313.52
2022-10-16T04:19:36.887Z,99321.45
2022-10-16T04:24:40.097Z,99320.21
2022-10-16T04:29:43.665Z,99319.89
2022-10-16T04:34:46.713Z,99321.81
2022-10-16T04:39:50.129Z,99326.77
2022-10-16T04:44:53.131Z,99322.68
2022-10-16T04:49:58.036Z,99324.81
2022-10-16T04:55:03.686Z,99327.81
2022-10-16T05:00:06.789Z,99327.36
2022-10-16T05:05:10.181Z,99335.02
2022-10-16T05:10:13.246Z,99344.54
2022-10-16T05:15:16.414Z,99342.64
2022-10-16T05:20:19.227Z,99341.08
2022-10-16T05:25:22.393Z,99335.84
2022-10-16T05:30:25.310Z,99338.85
2022-10-16T05:35:28.296Z,99347.55
2022-10-16T05:40:31.245Z,99354.55
2022-10-16T05:45:34.052Z,99354.66
2022-10-16T05:50:37.051Z,99357.56
2022-10-16T05:55:39.866Z,99355.83
2022-10-16T06:00:42.691Z,99352.33
2022-10-16T06:05:45.542Z,99355.25
2022-10-16T06:10:48.826Z,99359.82
2022-10-16T06:15:51.751Z,99371.83
2022-10-16T06:20:55.958Z,99382.84
2022-10-16T06:26:06.618Z,99393.63
2022-10-16T06:31:13.798Z,99396.66
2022-10-16T06:36:18.418Z,99407.34
2022-10-16T06:41:23.804Z,99416.86
2022-10-16T06:46:27.870Z,99420.18
2022-10-16T06:51:33.108Z,99427.38
2022-10-16T06:56:36.160Z,99438.16
2022-10-16T07:01:39.269Z,99446.30
2022-10-16T07:06:42.173Z,99442.98
2022-10-16T07:11:45.111Z,99442.77
2022-10-16T07:16:50.467Z,99438.70
2022-10-16T07:21:53.248Z,99439.10
2022-10-16T07:26:56.047Z,99447.25
2022-10-16T07:32:01.117Z,99446.90
2022-10-16T07:37:04.050Z,99451.42
2022-10-16T07:42:09.264Z,99445.69
2022-10-16T07:47:14.427Z,99441.50
2022-10-16T07:52:17.716Z,99447.42
2022-10-16T07:57:21.215Z,99450.75
2022-10-16T08:02:25.248Z,99455.70
2022-10-16T08:07:28.299Z,99456.96
2022-10-16T08:12:31.320Z,99464.83
2022-10-16T08:17:34.167Z,99464.27
2022-10-16T08:22:36.994Z,99472.99
2022-10-16T08:27:39.882Z,99474.89
2022-10-16T08:32:43.235Z,99471.88
2022-10-16T08:37:45.983Z,99477.14
2022-10-16T08:42:54.502Z,99473.58
2022-10-16T08:48:16.345Z,99484.48
2022-10-16T08:53:27.379Z,99484.00
2022-10-16T08:58:31.554Z,99481.10
2022-10-16T09:03:52.449Z,99486.32
2022-10-16T09:09:04.373Z,99484.99
2022-10-16T09:14:54.777Z,99487.56
2022-10-16T09:20:12.791Z,99490.48
2022-10-16T09:25:22.631Z,99497.20
2022-10-16T09:30:30.966Z,99495.63
2022-10-16T09:35:39.845Z,99499.97
2022-10-16T09:40:44.498Z,99500.30
2022-10-16T09:45:57.505Z,99497.60
2022-10-16T09:51:04.888Z,99499.78
2022-10-16T09:56:11.723Z,99499.45
2022-10-16T10:01:16.971Z,99498.68
2022-10-16T10:06:22.603Z,99500.73
2022-10-16T10:11:41.287Z,99503.81
2022-10-16T10:16:44.227Z,99507.02
2022-10-16T10:21:47.575Z,99505.56
2022-10-16T10:27:05.516Z,99506.54
2022-10-16T10:32:29.442Z,99503.88
2022-10-16T10:37:54.052Z,99501.61
2022-10-16T10:43:12.315Z,99502.23
2022-10-16T10:48:30.375Z,99497.71
2022-10-16T10:54:04.123Z,99495.80
2022-10-16T10:59:18.500Z,99489.04
2022-10-16T11:04:48.561Z,99484.86
2022-10-16T11:10:03.189Z,99485.70
2022-10-16T11:15:14.724Z,99484.70
2022-10-16T11:20:26.270Z,99485.08
2022-10-16T11:25:32.351Z,99482.70
2022-10-16T11:30:47.141Z,99483.31
2022-10-16T11:36:00.179Z,99480.58
2022-10-16T11:41:36.391Z,99480.39
2022-10-16T11:46:58.925Z,99481.81
2022-10-16T11:52:21.918Z,99482.08
2022-10-16T11:57:28.127Z,99482.11
2022-10-16T12:02:31.600Z,99481.86
2022-10-16T12:07:43.753Z,99485.58
2022-10-16T12:12:47.540Z,99487.89
2022-10-16T12:17:51.146Z,99486.00
2022-10-16T12:23:08.380Z,99490.10
2022-10-16T12:28:14.115Z,99487.77
2022-10-16T12:33:26.356Z,99485.66
2022-10-16T12:38:52.718Z,99485.89
2022-10-16T12:43:56.254Z,99487.57
2022-10-16T12:49:14.603Z,99489.30
2022-10-16T12:54:51.049Z,99492.27
2022-10-16T13:00:22.580Z,99496.09
2022-10-16T13:05:59.714Z,99498.06
2022-10-16T13:11:45.145Z,99509.89
2022-10-16T13:17:04.077Z,99511.95
2022-10-16T13:22:38.915Z,99515.05
2022-10-16T13:28:03.031Z,99518.65
2022-10-16T13:33:13.720Z,99520.55
2022-10-16T13:38:20.072Z,99529.41
2022-10-16T13:43:37.784Z,99525.08
2022-10-16T13:48:42.828Z,99527.41
2022-10-16T13:53:47.228Z,99531.11
2022-10-16T13:59:05.289Z,99539.04
2022-10-16T14:04:11.151Z,99549.12
2022-10-16T14:09:25.283Z,99551.54
2022-10-16T14:14:36.977Z,99548.52
2022-10-16T14:19:40.011Z,99553.55
2022-10-16T14:24:43.001Z,99549.94
2022-10-16T14:29:45.890Z,99552.60
2022-10-16T14:34:54.809Z,99546.81
2022-10-16T14:39:58.082Z,99548.36
2022-10-16T14:45:04.849Z,99542.99
2022-10-16T14:50:15.472Z,99544.02
2022-10-16T14:55:19.350Z,99546.59
2022-10-16T15:00:25.346Z,99542.41
2022-10-16T15:05:30.921Z,99540.74
2022-10-16T15:10:39.808Z,99548.19
2022-10-16T15:15:47.767Z,99555.59
2022-10-16T15:20:51.757Z,99565.58
2022-10-16T15:25:56.718Z,99574.59
2022-10-16T15:30:59.732Z,99577.52
2022-10-16T15:36:04.280Z,99580.55
2022-10-16T15:41:07.435Z,99586.26
2022-10-16T15:46:15.375Z,99591.36
2022-10-16T15:51:19.639Z,99596.49
2022-10-16T15:56:23.467Z,99596.16
2022-10-16T16:01:26.897Z,99599.06
2022-10-16T16:06:30.570Z,99606.08
2022-10-16T16:11:38.615Z,99606.52
2022-10-16T16:16:42.516Z,99601.71
2022-10-16T16:21:45.626Z,99603.44
2022-10-16T16:26:48.441Z,99613.67
2022-10-16T16:31:51.253Z,99623.35
2022-10-16T16:36:54.961Z,99632.55
2022-10-16T16:41:59.681Z,99640.66
2022-10-16T16:47:04.346Z,99648.11
2022-10-16T16:52:07.346Z,99658.14
2022-10-16T16:57:10.452Z,99663.25
2022-10-16T17:02:13.510Z,99661.78
2022-10-16T17:07:18.442Z,99669.28
2022-10-16T17:12:22.728Z,99667.00
2022-10-16T17:17:26.203Z,99684.45
2022-10-16T17:22:29.645Z,99695.79
2022-10-16T17:27:34.434Z,99689.06
2022-10-16T17:32:38.055Z,99694.43
2022-10-16T17:37:42.238Z,99704.27
2022-10-16T17:42:45.162Z,99709.98
2022-10-16T17:47:48.269Z,99708.23
2022-10-16T17:52:51.188Z,99715.85
2022-10-16T17:57:54.130Z,99718.52
2022-10-16T18:02:57.358Z,99722.48
2022-10-16T18:08:00.248Z,99732.11
2022-10-16T18:13:03.466Z,99738.08
2022-10-16T18:18:06.703Z,99741.25
2022-10-16T18:23:09.581Z,99742.71
2022-10-16T18:28:12.549Z,99753.34
2022-10-16T18:33:15.418Z,99763.11
2022-10-16T18:38:18.759Z,99771.73
2022-10-16T18:43:21.665Z,99776.84
2022-10-16T18:48:25.238Z,99781.30
2022-10-16T18:58:32.032Z,99789.83
2022-10-16T19:03:35.227Z,99796.61
2022-10-16T19:08:39.226Z,99804.05
2022-10-16T19:13:46.178Z,99814.02
2022-10-16T19:18:50.794Z,99822.41
2022-10-16T19:23:56.286Z,99831.36
2022-10-16T19:29:02.472Z,99836.23
2022-10-16T19:34:06.902Z,99847.38
2022-10-16T19:39:25.864Z,99849.70
2022-10-16T19:44:37.809Z,99846.52
2022-10-16T19:49:40.822Z,99846.23
2022-10-16T19:54:43.706Z,99848.10
2022-10-16T19:59:46.757Z,99854.00
2022-10-16T20:04:49.807Z,99855.08
2022-10-16T20:09:53.233Z,99856.63
2022-10-16T20:14:56.293Z,99866.62
2022-10-16T20:19:59.155Z,99867.20
2022-10-16T20:25:14.327Z,99872.12
2022-10-16T20:30:18.671Z,99881.95
2022-10-16T20:35:21.713Z,99889.68
2022-10-16T20:40:27.627Z,99900.83
2022-10-16T20:45:31.149Z,99904.52
2022-10-16T20:50:34.218Z,99906.07
2022-10-16T20:55:38.099Z,99912.05
2022-10-16T21:00:41.044Z,99913.55
2022-10-16T21:05:43.963Z,99919.77
2022-10-16T21:10:46.766Z,99922.08
2022-10-16T21:15:49.841Z,99928.47
2022-10-16T21:20:52.751Z,99921.89
2022-10-16T21:25:55.678Z,99931.87
2022-10-16T21:30:58.739Z,99940.46
2022-10-16T21:36:01.773Z,99942.13
2022-10-16T21:41:16.544Z,99947.70
2022-10-16T21:46:22.289Z,99946.84
2022-10-16T21:51:34.041Z,99953.34
2022-10-16T21:56:37.051Z,99964.19
2022-10-16T22:01:40.440Z,99975.57
2022-10-16T22:06:44.052Z,99978.44
2022-10-16T22:11:46.925Z,99978.73
2022-10-16T22:16:50.530Z,99980.67
2022-10-16T22:21:57.324Z,99987.48
2022-10-16T22:27:00.425Z,99991.19
2022-10-16T22:32:03.306Z,99995.63
2022-10-16T22:37:06.182Z,99997.21
2022-10-16T22:42:09.077Z,99998.73
2022-10-16T22:47:11.997Z,100000.73
2022-10-16T22:52:15.257Z,100002.17
2022-10-16T22:57:18.201Z,100005.77
2022-10-16T23:02:21.441Z,100004.86
2022-10-16T23:07:24.359Z,100002.66
2022-10-16T23:12:30.492Z,99999.90
2022-10-16T23:17:33.773Z,100000.27
2022-10-16T23:22:36.581Z,100004.54
2022-10-16T23:27:39.433Z,100005.81
2022-10-16T23:32:42.382Z,100014.25
2022-10-16T23:37:45.273Z,100016.71
2022-10-16T23:42:50.843Z,100019.40
2022-10-16T23:47:53.543Z,100022.55
2022-10-16T23:52:56.771Z,100028.61
2022-10-16T23:57:59.571Z,100032.67
